Nevsehir, Turkey

2:24 AM EEST on September 03, 2015 (GMT +0300)
Erkilet Air Base | | Change Station
CLOSE
Current Station
Airport
Location: Kayseri,
Elevation: 3455 ft
Nearby Weather Stations

Elev 3455 ft 38.77 °N, 35.50 °E | Updated 34 minutes ago

Clear
Clear
55 °F
Feels Like 55 °F
N
4
Wind Variable Wind from NNE

Today
High -- | Low -- °F
--% Chance of Precip.
Yesterday
High -- | Low -- °F
Precip. -- in
6:11 AM 7:09 PM
Waning Gibbous, 76% visible
Pressure 30.04 in
Visibility -9999.0 miles
Clouds
Dew Point 41 °F
Humidity 58%
Rainfall 0.00 in
Snow Depth Not available.
UV Not available.
Pollen Not available.
Air Quality Not available.
Flu Activity Not available.
METAR LTAU 022250Z 02003KT CAVOK 13/05 Q1017 NOSIG
Pressure 30.04 in
Visibility -9999.0 miles
Clouds
Dew Point 41 °F
Humidity 58%
Rainfall 0.00 in
Snow Depth Not available.
UV Not available.
Pollen Not available.
Air Quality Not available.
Flu Activity Not available.
METAR LTAU 022250Z 02003KT CAVOK 13/05 Q1017 NOSIG

10-Day Weather Forecast

×

Almanac

Astronomy

Sep. 03, 2015 Rise Set
Actual Time
Civil Twilight
Nautical Twilight
Astronomical Twilight
Moon
Length of Visible Light
Length of Day
Tomorrow will be .
, % of the Moon is Illuminated

Today's Extremes

Country Highs Country Lows

Community

WunderPhotos

Upload Photos

1,851,826 photos uploaded!

WunderBlogs® & News

Nearby

Air Quality

  Air Quality AQ Index Pollutant
Not available.

Snow Depth

Station Depth Elevation

Earthquake Activity

City Distance Mag. Time & Date
Minimum magnitude displayed is 2.5.

Coastal Water Temperatures

Place Temperature

Stations

Nearby Weather Stations

Station Location Temp. Windchill Dew Point Humidity Wind Precip. Elev Updated Type